Time;durP1;ratioP1;P1;durP2;ratioP2;P2;SDS_P1;SDS_P2;PMS_P1;PMS_P2;Temp;Humidity;BMP_temperature;BMP_pressure;BME280_temperature;BME280_humidity;BME280_pressure;Samples;Min_cycle;Max_cycle;Signal;HPM_P1;HPM_P2
2023/09/23 00:01:36;;;;;;;;;;;25.10;56.50;;;;;;5056105;28;19975;-64
2023/09/23 00:04:04;;;;;;;;;;;25.10;56.60;;;;;;5056901;28;19925;-63
2023/09/23 00:06:31;;;;;;;;;;;25.10;56.50;;;;;;5071357;28;19975;-64
2023/09/23 00:09:00;;;;;;;;;;;25.10;56.50;;;;;;5056541;28;19924;-63
2023/09/23 00:11:27;;;;;;;;;;;25.10;56.50;;;;;;5054992;28;19985;-64
2023/09/23 00:13:54;;;;;;;;;;;25.10;56.50;;;;;;5056586;28;19925;-63
2023/09/23 00:16:21;;;;;;;;;;;25.10;56.40;;;;;;5056523;28;19959;-64
2023/09/23 00:18:49;;;;;;;;;;;25.10;56.40;;;;;;5056317;28;19987;-64
2023/09/23 00:21:16;;;;;;;;;;;25.10;56.30;;;;;;5055721;28;20344;-63
2023/09/23 00:23:45;;;;;;;;;;;25.10;56.30;;;;;;5056350;28;20349;-64
2023/09/23 00:26:17;;;;;;;;;;;25.10;56.30;;;;;;5055096;28;19932;-63
2023/09/23 00:28:45;;;;;;;;;;;25.10;56.30;;;;;;5056228;28;19968;-64
2023/09/23 00:31:14;;;;;;;;;;;25.10;56.20;;;;;;5055559;28;19931;-63
2023/09/23 00:33:41;;;;;;;;;;;25.10;56.20;;;;;;5056182;28;19958;-64
2023/09/23 00:36:09;;;;;;;;;;;25.10;56.20;;;;;;5056352;28;20362;-63
2023/09/23 00:38:37;;;;;;;;;;;25.10;56.20;;;;;;5054352;28;19925;-64
2023/09/23 00:41:08;;;;;;;;;;;25.10;56.20;;;;;;5054992;28;19931;-64
2023/09/23 00:43:35;;;;;;;;;;;25.10;56.20;;;;;;5056032;28;20027;-64
2023/09/23 00:46:06;;;;;;;;;;;25.10;56.20;;;;;;5056094;28;19925;-64
2023/09/23 00:48:38;;;;;;;;;;;25.10;56.30;;;;;;5056273;28;19925;-64
2023/09/23 00:51:09;;;;;;;;;;;25.10;56.30;;;;;;5055227;28;20373;-64
2023/09/23 00:53:39;;;;;;;;;;;25.10;56.20;;;;;;5056170;28;19970;-64
2023/09/23 00:56:08;;;;;;;;;;;25.10;56.30;;;;;;5055575;28;19924;-64
2023/09/23 00:58:39;;;;;;;;;;;25.10;56.20;;;;;;5055954;28;19924;-64
2023/09/23 01:01:06;;;;;;;;;;;25.10;56.30;;;;;;5056059;28;19925;-63
2023/09/23 01:03:33;;;;;;;;;;;25.10;56.20;;;;;;5056013;28;20023;-63
2023/09/23 01:06:14;;;;;;;;;;;25.10;56.30;;;;;;5054140;28;19968;-63
2023/09/23 01:08:45;;;;;;;;;;;25.10;56.20;;;;;;5055162;28;19929;-64
2023/09/23 01:11:13;;;;;;;;;;;25.10;56.20;;;;;;5055147;28;19932;-63
2023/09/23 01:13:42;;;;;;;;;;;25.10;56.30;;;;;;5054528;28;19925;-64
2023/09/23 01:16:13;;;;;;;;;;;25.10;56.20;;;;;;5054966;28;19925;-63
2023/09/23 01:18:42;;;;;;;;;;;25.10;56.20;;;;;;5055290;28;20400;-64
2023/09/23 01:21:10;;;;;;;;;;;25.10;56.20;;;;;;5055191;28;19932;-63
2023/09/23 01:23:38;;;;;;;;;;;25.10;56.30;;;;;;5055257;28;20028;-64
2023/09/23 01:26:05;;;;;;;;;;;25.10;56.20;;;;;;5054948;28;19970;-63
2023/09/23 01:28:32;;;;;;;;;;;25.10;56.20;;;;;;5055037;28;19987;-64
2023/09/23 01:31:02;;;;;;;;;;;25.10;56.20;;;;;;5055018;28;19992;-63
2023/09/23 01:33:30;;;;;;;;;;;25.10;56.20;;;;;;5054180;28;20344;-63
2023/09/23 01:35:58;;;;;;;;;;;25.10;56.20;;;;;;5054912;28;19924;-63
2023/09/23 01:38:25;;;;;;;;;;;25.10;56.20;;;;;;5054888;28;19932;-63
2023/09/23 01:40:53;;;;;;;;;;;25.10;56.20;;;;;;5055246;28;19932;-63
2023/09/23 01:43:20;;;;;;;;;;;25.10;56.30;;;;;;5055097;28;19936;-63
2023/09/23 01:45:48;;;;;;;;;;;25.10;56.30;;;;;;5054615;28;19929;-63
2023/09/23 01:48:15;;;;;;;;;;;25.20;56.30;;;;;;5054650;28;19932;-63
2023/09/23 01:50:43;;;;;;;;;;;25.10;56.20;;;;;;5054905;28;19933;-64
2023/09/23 01:53:13;;;;;;;;;;;25.10;56.20;;;;;;5054639;28;19978;-63
2023/09/23 01:55:40;;;;;;;;;;;25.10;56.30;;;;;;5054936;28;19925;-63
2023/09/23 01:58:07;;;;;;;;;;;25.10;56.30;;;;;;5054570;28;19925;-63
2023/09/23 02:00:36;;;;;;;;;;;25.10;56.20;;;;;;5054786;28;19928;-63
2023/09/23 02:03:03;;;;;;;;;;;25.10;56.30;;;;;;5052872;28;19932;-63
2023/09/23 02:05:30;;;;;;;;;;;25.10;56.20;;;;;;5054498;28;20357;-63
2023/09/23 02:07:57;;;;;;;;;;;25.10;56.20;;;;;;5054297;28;19960;-63
2023/09/23 02:10:26;;;;;;;;;;;25.10;56.20;;;;;;5054131;28;19924;-63
2023/09/23 02:12:54;;;;;;;;;;;25.10;56.20;;;;;;5054056;28;19928;-63
2023/09/23 02:15:21;;;;;;;;;;;25.10;56.30;;;;;;5054155;28;20024;-63
2023/09/23 02:17:49;;;;;;;;;;;25.10;56.30;;;;;;5051978;28;19970;-63
2023/09/23 02:20:18;;;;;;;;;;;25.10;56.30;;;;;;5053151;28;19925;-63
2023/09/23 02:22:47;;;;;;;;;;;25.10;56.30;;;;;;5054436;28;19925;-63
2023/09/23 02:25:15;;;;;;;;;;;25.10;56.30;;;;;;5053686;28;19925;-63
2023/09/23 02:27:43;;;;;;;;;;;25.10;56.30;;;;;;5053987;28;19977;-64
2023/09/23 02:30:11;;;;;;;;;;;25.10;56.40;;;;;;5052572;28;19931;-63
2023/09/23 02:32:42;;;;;;;;;;;25.10;56.40;;;;;;5053635;28;19943;-63
2023/09/23 02:35:11;;;;;;;;;;;25.10;56.40;;;;;;5053852;28;20344;-63
2023/09/23 02:37:39;;;;;;;;;;;25.10;56.50;;;;;;5053758;28;20008;-63
2023/09/23 02:40:11;;;;;;;;;;;25.10;56.50;;;;;;5053660;28;19925;-63
2023/09/23 02:42:40;;;;;;;;;;;25.10;56.50;;;;;;5053647;28;19928;-63
2023/09/23 02:45:09;;;;;;;;;;;25.10;56.40;;;;;;5053602;28;19971;-63
2023/09/23 02:47:37;;;;;;;;;;;25.10;56.40;;;;;;5053609;28;19929;-63
2023/09/23 02:50:13;;;;;;;;;;;25.10;56.40;;;;;;5053513;28;19971;-64
2023/09/23 02:52:41;;;;;;;;;;;25.10;56.40;;;;;;5053242;28;20011;-63
2023/09/23 02:55:14;;;;;;;;;;;25.10;56.40;;;;;;5053497;28;20300;-63
2023/09/23 02:57:46;;;;;;;;;;;25.10;56.40;;;;;;5053602;28;20278;-63
2023/09/23 03:00:17;;;;;;;;;;;25.10;56.30;;;;;;5053423;28;19933;-63
2023/09/23 03:02:45;;;;;;;;;;;25.10;56.30;;;;;;5054157;28;19924;-63
2023/09/23 03:05:16;;;;;;;;;;;25.10;56.30;;;;;;5053034;28;19979;-63
2023/09/23 03:07:47;;;;;;;;;;;25.10;56.30;;;;;;5051472;28;20091;-63
2023/09/23 03:10:18;;;;;;;;;;;25.10;56.30;;;;;;5053566;28;19931;-63
2023/09/23 03:12:53;;;;;;;;;;;25.10;56.40;;;;;;5052321;28;19932;-63
2023/09/23 03:15:22;;;;;;;;;;;25.10;56.40;;;;;;5053139;28;19982;-63
2023/09/23 03:17:53;;;;;;;;;;;25.10;56.40;;;;;;5052064;28;19940;-63
2023/09/23 03:20:21;;;;;;;;;;;25.10;56.50;;;;;;5053183;28;19935;-63
2023/09/23 03:22:49;;;;;;;;;;;25.10;56.50;;;;;;5053098;28;19925;-63
2023/09/23 03:25:18;;;;;;;;;;;25.00;56.40;;;;;;5052709;28;20385;-63
2023/09/23 03:27:46;;;;;;;;;;;25.10;56.50;;;;;;5053202;28;20442;-63
2023/09/23 03:30:13;;;;;;;;;;;25.10;56.50;;;;;;5052986;28;19979;-63
2023/09/23 03:32:40;;;;;;;;;;;25.10;56.60;;;;;;5051991;28;19971;-63
2023/09/23 03:35:13;;;;;;;;;;;25.10;56.60;;;;;;5052931;28;19925;-63
2023/09/23 03:37:41;;;;;;;;;;;25.10;56.60;;;;;;5052915;28;19929;-63
2023/09/23 03:40:08;;;;;;;;;;;25.10;56.60;;;;;;5053442;28;19925;-63
2023/09/23 03:42:35;;;;;;;;;;;25.00;56.50;;;;;;5052921;28;20285;-63
2023/09/23 03:45:03;;;;;;;;;;;25.10;56.60;;;;;;5053381;28;20321;-63
2023/09/23 03:47:30;;;;;;;;;;;25.00;56.50;;;;;;5052907;28;19929;-63
2023/09/23 03:49:57;;;;;;;;;;;25.10;56.60;;;;;;5053144;28;20285;-63
2023/09/23 03:52:25;;;;;;;;;;;25.10;56.60;;;;;;5052712;28;20448;-63
2023/09/23 03:54:52;;;;;;;;;;;25.00;56.60;;;;;;5053189;28;19925;-63
2023/09/23 03:57:19;;;;;;;;;;;25.00;56.60;;;;;;5052517;28;19974;-63
2023/09/23 03:59:47;;;;;;;;;;;25.00;56.60;;;;;;5052653;28;19924;-63
2023/09/23 04:02:14;;;;;;;;;;;25.00;56.80;;;;;;5053061;28;20389;-63
2023/09/23 04:04:42;;;;;;;;;;;25.00;56.60;;;;;;5053102;28;19986;-63
2023/09/23 04:07:10;;;;;;;;;;;25.00;57.20;;;;;;5052453;28;19924;-63
2023/09/23 04:09:37;;;;;;;;;;;25.00;56.60;;;;;;5052668;28;19924;-63
2023/09/23 04:12:04;;;;;;;;;;;25.00;56.60;;;;;;5052437;28;20305;-63
2023/09/23 04:14:31;;;;;;;;;;;25.10;56.70;;;;;;5052336;28;19968;-63
2023/09/23 04:16:58;;;;;;;;;;;25.10;56.70;;;;;;5055659;28;19939;-63
2023/09/23 04:19:26;;;;;;;;;;;25.10;56.60;;;;;;5056043;28;19931;-63
2023/09/23 04:21:53;;;;;;;;;;;25.10;56.60;;;;;;5055930;28;19925;-63
2023/09/23 04:24:20;;;;;;;;;;;25.10;56.60;;;;;;5056399;28;19926;-63
2023/09/23 04:26:49;;;;;;;;;;;25.00;56.60;;;;;;5056245;28;19986;-63
2023/09/23 04:29:19;;;;;;;;;;;25.10;56.60;;;;;;5056600;28;19932;-63
2023/09/23 04:31:49;;;;;;;;;;;25.10;56.70;;;;;;5054574;28;19928;-63
2023/09/23 04:34:17;;;;;;;;;;;25.10;56.70;;;;;;5056548;28;20301;-63
2023/09/23 04:36:46;;;;;;;;;;;25.00;56.60;;;;;;5055936;28;19928;-63
2023/09/23 04:39:13;;;;;;;;;;;25.00;56.80;;;;;;5055637;28;19925;-63
2023/09/23 04:41:41;;;;;;;;;;;24.90;57.10;;;;;;5055909;28;19925;-63
2023/09/23 04:44:08;;;;;;;;;;;24.80;57.30;;;;;;5056359;28;19924;-63
2023/09/23 04:46:35;;;;;;;;;;;24.70;57.80;;;;;;5055566;28;19979;-63
2023/09/23 04:49:02;;;;;;;;;;;24.40;56.80;;;;;;5055961;28;20289;-63
2023/09/23 04:51:30;;;;;;;;;;;24.10;55.40;;;;;;5055657;28;20179;-63
2023/09/23 04:53:57;;;;;;;;;;;23.90;54.20;;;;;;5054657;28;19925;-63
2023/09/23 04:56:24;;;;;;;;;;;23.60;52.80;;;;;;5055632;28;19933;-63
2023/09/23 04:58:52;;;;;;;;;;;23.30;52.60;;;;;;5056111;28;19924;-63
2023/09/23 05:01:19;;;;;;;;;;;23.00;52.90;;;;;;5055883;28;19995;-63
2023/09/23 05:03:46;;;;;;;;;;;22.70;53.20;;;;;;5055756;28;19929;-63
2023/09/23 05:06:14;;;;;;;;;;;22.40;54.10;;;;;;5055596;28;20002;-64
2023/09/23 05:08:41;;;;;;;;;;;22.10;53.80;;;;;;5055794;28;19956;-64
2023/09/23 05:11:11;;;;;;;;;;;21.80;53.50;;;;;;5054958;28;19925;-65
2023/09/23 05:13:40;;;;;;;;;;;21.50;53.20;;;;;;5055062;28;20346;-64
2023/09/23 05:16:07;;;;;;;;;;;21.20;53.30;;;;;;5053558;28;19925;-64
2023/09/23 05:18:35;;;;;;;;;;;21.00;55.00;;;;;;5055119;28;20436;-64
2023/09/23 05:21:02;;;;;;;;;;;20.80;54.60;;;;;;5055380;28;19929;-64
2023/09/23 05:23:32;;;;;;;;;;;20.60;54.80;;;;;;5055268;28;19971;-64
2023/09/23 05:25:59;;;;;;;;;;;20.40;53.10;;;;;;5055076;28;19970;-64
2023/09/23 05:28:26;;;;;;;;;;;20.40;53.00;;;;;;5054205;28;19928;-64
2023/09/23 05:30:53;;;;;;;;;;;20.20;52.30;;;;;;5053525;28;20423;-64
2023/09/23 05:33:21;;;;;;;;;;;20.10;53.60;;;;;;5055017;28;20008;-64
2023/09/23 05:35:48;;;;;;;;;;;20.00;53.30;;;;;;5055205;28;19974;-64
2023/09/23 05:38:15;;;;;;;;;;;19.90;53.40;;;;;;5055142;28;20286;-64
2023/09/23 05:40:42;;;;;;;;;;;19.80;55.90;;;;;;5055262;28;19925;-64
2023/09/23 05:43:11;;;;;;;;;;;19.80;52.70;;;;;;5053712;28;19928;-64
2023/09/23 05:45:38;;;;;;;;;;;19.60;53.80;;;;;;5054942;28;20337;-64
2023/09/23 05:48:05;;;;;;;;;;;19.60;55.30;;;;;;5054677;28;19924;-64
2023/09/23 05:50:33;;;;;;;;;;;19.50;54.10;;;;;;5054590;28;20373;-64
2023/09/23 05:53:00;;;;;;;;;;;19.50;54.00;;;;;;5054715;28;20277;-64
2023/09/23 05:55:27;;;;;;;;;;;19.40;53.60;;;;;;5054425;28;19925;-64
2023/09/23 05:57:54;;;;;;;;;;;19.40;54.40;;;;;;5054416;28;19986;-64
2023/09/23 06:00:21;;;;;;;;;;;19.30;54.80;;;;;;5054635;28;19925;-64
2023/09/23 06:02:48;;;;;;;;;;;19.20;54.40;;;;;;5054334;28;19925;-64
2023/09/23 06:05:15;;;;;;;;;;;19.10;53.80;;;;;;5054506;28;19951;-64
2023/09/23 06:07:43;;;;;;;;;;;19.00;56.60;;;;;;5053902;28;20400;-64
2023/09/23 06:10:10;;;;;;;;;;;18.90;57.50;;;;;;5052367;28;20027;-64
2023/09/23 06:12:38;;;;;;;;;;;18.80;55.80;;;;;;5053203;28;19925;-64
2023/09/23 06:15:06;;;;;;;;;;;18.80;55.50;;;;;;5052883;28;20423;-64
2023/09/23 06:17:33;;;;;;;;;;;18.70;54.80;;;;;;5054008;28;19971;-64
2023/09/23 06:20:00;;;;;;;;;;;18.70;56.80;;;;;;5054563;28;19925;-64
2023/09/23 06:22:28;;;;;;;;;;;18.60;56.70;;;;;;5053979;28;20396;-64
2023/09/23 06:24:55;;;;;;;;;;;18.60;55.10;;;;;;5052968;28;20421;-64
2023/09/23 06:27:22;;;;;;;;;;;18.60;57.50;;;;;;5051843;28;19932;-64
2023/09/23 06:29:49;;;;;;;;;;;18.50;57.00;;;;;;5053245;28;19971;-64
2023/09/23 06:32:16;;;;;;;;;;;18.50;57.10;;;;;;5052113;28;19932;-64
2023/09/23 06:34:44;;;;;;;;;;;18.50;56.80;;;;;;5053021;28;19979;-64
2023/09/23 06:37:11;;;;;;;;;;;18.50;55.90;;;;;;5053808;28;19931;-64
2023/09/23 06:39:38;;;;;;;;;;;18.40;57.50;;;;;;5053038;28;19972;-64
2023/09/23 06:42:05;;;;;;;;;;;18.40;58.80;;;;;;5052781;28;19929;-64
2023/09/23 06:44:32;;;;;;;;;;;18.40;56.60;;;;;;5053891;28;19925;-64
2023/09/23 06:47:00;;;;;;;;;;;18.40;59.00;;;;;;5053295;28;20051;-64
2023/09/23 06:49:29;;;;;;;;;;;18.40;57.00;;;;;;5039811;28;19925;-64
2023/09/23 06:51:56;;;;;;;;;;;18.40;58.70;;;;;;5033287;28;19929;-64
2023/09/23 06:54:23;;;;;;;;;;;18.40;58.40;;;;;;5033524;28;19932;-64
2023/09/23 06:56:53;;;;;;;;;;;18.40;56.70;;;;;;5032570;28;19933;-64
2023/09/23 06:59:20;;;;;;;;;;;18.40;57.40;;;;;;5033534;28;19976;-64
2023/09/23 07:01:47;;;;;;;;;;;18.40;57.90;;;;;;5033098;28;20344;-64
2023/09/23 07:04:14;;;;;;;;;;;18.40;56.20;;;;;;5033708;28;19925;-64
2023/09/23 07:06:41;;;;;;;;;;;18.40;57.10;;;;;;5037615;28;19947;-64
2023/09/23 07:09:08;;;;;;;;;;;18.40;57.80;;;;;;5052987;28;19924;-64
2023/09/23 07:11:37;;;;;;;;;;;18.40;59.10;;;;;;5053134;28;19983;-64
2023/09/23 07:14:05;;;;;;;;;;;18.40;57.70;;;;;;5068657;28;19964;-64
2023/09/23 07:16:36;;;;;;;;;;;18.40;58.60;;;;;;5053141;28;20374;-64
2023/09/23 07:19:03;;;;;;;;;;;18.40;59.40;;;;;;5053570;28;19932;-64
2023/09/23 07:21:30;;;;;;;;;;;18.40;59.50;;;;;;5053127;28;19925;-65
2023/09/23 07:23:58;;;;;;;;;;;18.40;59.40;;;;;;5053291;28;19924;-64
2023/09/23 07:26:25;;;;;;;;;;;18.40;60.40;;;;;;5053346;28;19929;-64
2023/09/23 07:28:52;;;;;;;;;;;18.40;57.50;;;;;;5053073;28;19925;-64
2023/09/23 07:31:19;;;;;;;;;;;18.40;61.00;;;;;;5052854;28;19925;-64
2023/09/23 07:33:46;;;;;;;;;;;18.40;60.20;;;;;;5052580;28;19931;-64
2023/09/23 07:36:14;;;;;;;;;;;18.50;60.30;;;;;;5053118;28;19994;-64
2023/09/23 07:38:41;;;;;;;;;;;18.50;59.20;;;;;;5053337;28;20024;-64
2023/09/23 07:41:08;;;;;;;;;;;18.60;59.90;;;;;;5053087;28;19971;-64
2023/09/23 07:43:38;;;;;;;;;;;18.70;60.60;;;;;;5053264;28;19928;-65
2023/09/23 07:46:05;;;;;;;;;;;18.70;58.30;;;;;;5053381;28;20356;-64
2023/09/23 07:48:33;;;;;;;;;;;18.70;59.50;;;;;;5052945;28;20301;-65
2023/09/23 07:51:00;;;;;;;;;;;18.80;60.00;;;;;;5054473;28;20007;-64
2023/09/23 07:53:27;;;;;;;;;;;18.70;58.90;;;;;;5056608;28;19951;-64
2023/09/23 07:55:54;;;;;;;;;;;18.70;59.50;;;;;;5057203;28;19924;-64
2023/09/23 07:58:21;;;;;;;;;;;18.70;59.00;;;;;;5056711;28;20425;-64
2023/09/23 08:00:48;;;;;;;;;;;18.60;60.00;;;;;;5056980;28;19933;-65
2023/09/23 08:03:15;;;;;;;;;;;18.60;61.50;;;;;;5056445;28;19929;-64
2023/09/23 08:05:42;;;;;;;;;;;18.60;60.50;;;;;;5072107;28;19979;-65
2023/09/23 08:08:10;;;;;;;;;;;18.60;59.00;;;;;;5056382;28;20296;-65
2023/09/23 08:10:37;;;;;;;;;;;18.60;60.00;;;;;;5056217;28;19925;-65
2023/09/23 08:13:04;;;;;;;;;;;18.60;59.30;;;;;;5056019;28;19925;-64
2023/09/23 08:15:31;;;;;;;;;;;18.60;59.80;;;;;;5055475;28;20007;-65
2023/09/23 08:18:00;;;;;;;;;;;18.60;60.00;;;;;;5056538;28;19932;-65
2023/09/23 08:20:27;;;;;;;;;;;18.60;59.60;;;;;;5056906;28;19925;-64
2023/09/23 08:22:54;;;;;;;;;;;18.60;59.10;;;;;;5055180;28;20449;-65
2023/09/23 08:25:24;;;;;;;;;;;18.50;58.90;;;;;;5056192;28;19932;-64
2023/09/23 08:27:53;;;;;;;;;;;18.50;60.20;;;;;;5055930;28;19925;-65
2023/09/23 08:30:21;;;;;;;;;;;18.50;60.50;;;;;;5056273;28;19925;-64
2023/09/23 08:32:49;;;;;;;;;;;18.50;59.80;;;;;;5055955;28;19929;-64
2023/09/23 08:35:16;;;;;;;;;;;18.50;60.20;;;;;;5056469;28;19975;-65
2023/09/23 08:37:48;;;;;;;;;;;18.50;62.30;;;;;;5055927;28;19925;-65
2023/09/23 08:40:19;;;;;;;;;;;18.60;62.00;;;;;;5056280;28;19925;-65
2023/09/23 08:42:50;;;;;;;;;;;18.60;60.70;;;;;;5071195;28;20403;-65
2023/09/23 08:45:19;;;;;;;;;;;18.60;60.90;;;;;;5056572;28;19925;-65
2023/09/23 08:47:47;;;;;;;;;;;18.70;59.40;;;;;;5055576;28;19928;-65
2023/09/23 08:50:15;;;;;;;;;;;18.70;60.40;;;;;;5055319;28;19970;-65
2023/09/23 08:52:43;;;;;;;;;;;18.70;61.40;;;;;;5056128;28;19925;-65
2023/09/23 08:55:10;;;;;;;;;;;18.80;60.40;;;;;;5056240;28;19932;-65
2023/09/23 08:57:38;;;;;;;;;;;18.80;61.00;;;;;;5055131;28;20395;-64
2023/09/23 09:00:08;;;;;;;;;;;18.80;59.40;;;;;;5056199;28;19925;-65
2023/09/23 09:02:35;;;;;;;;;;;18.80;60.90;;;;;;5070088;28;19925;-65
2023/09/23 09:05:03;;;;;;;;;;;18.90;59.40;;;;;;5071544;28;19925;-65
2023/09/23 09:07:37;;;;;;;;;;;18.90;59.70;;;;;;5055379;28;19925;-65
2023/09/23 09:10:07;;;;;;;;;;;18.90;59.30;;;;;;5054835;28;19982;-65
2023/09/23 09:12:34;;;;;;;;;;;19.00;60.70;;;;;;5055525;28;19924;-65
2023/09/23 09:15:01;;;;;;;;;;;19.00;60.50;;;;;;5055157;28;19979;-65
2023/09/23 09:17:28;;;;;;;;;;;19.00;59.40;;;;;;5055494;28;19925;-65
2023/09/23 09:19:56;;;;;;;;;;;19.00;59.40;;;;;;5055365;28;19925;-65
2023/09/23 09:22:23;;;;;;;;;;;19.00;59.70;;;;;;5055182;28;19924;-64
2023/09/23 09:24:50;;;;;;;;;;;19.00;58.20;;;;;;5055228;28;20057;-65
2023/09/23 09:27:17;;;;;;;;;;;19.00;59.30;;;;;;5054308;28;19932;-65
2023/09/23 09:29:44;;;;;;;;;;;19.00;59.60;;;;;;5055206;28;19991;-65
2023/09/23 09:32:21;;;;;;;;;;;18.90;58.80;;;;;;5055136;28;20015;-65
2023/09/23 09:34:49;;;;;;;;;;;18.90;59.70;;;;;;5055064;28;19929;-65
2023/09/23 09:37:16;;;;;;;;;;;18.90;58.70;;;;;;5054828;28;20100;-65
2023/09/23 09:39:51;;;;;;;;;;;18.90;59.90;;;;;;5054963;28;20366;-65
2023/09/23 09:42:20;;;;;;;;;;;18.90;59.40;;;;;;5054802;28;20382;-65
2023/09/23 09:44:48;;;;;;;;;;;18.90;57.30;;;;;;5055061;28;19929;-65
2023/09/23 09:47:17;;;;;;;;;;;19.00;59.90;;;;;;5054617;28;20331;-65
2023/09/23 09:49:45;;;;;;;;;;;19.00;60.30;;;;;;5054763;28;19963;-65
2023/09/23 09:52:13;;;;;;;;;;;19.00;59.00;;;;;;5054597;28;19928;-65
2023/09/23 09:54:41;;;;;;;;;;;19.10;60.50;;;;;;5054823;28;19994;-65
2023/09/23 09:57:12;;;;;;;;;;;19.10;60.60;;;;;;5054497;28;19947;-65
2023/09/23 09:59:41;;;;;;;;;;;19.20;58.90;;;;;;5054872;28;20324;-65
2023/09/23 10:02:10;;;;;;;;;;;19.10;57.60;;;;;;5054250;28;20404;-65
2023/09/23 10:04:37;;;;;;;;;;;19.20;60.40;;;;;;5054178;28;19925;-65
2023/09/23 10:07:07;;;;;;;;;;;19.20;58.90;;;;;;5054342;28;19928;-65
2023/09/23 10:09:38;;;;;;;;;;;19.20;59.50;;;;;;5054274;28;20024;-65
2023/09/23 10:12:06;;;;;;;;;;;19.20;59.90;;;;;;5054146;28;19968;-65
2023/09/23 10:14:33;;;;;;;;;;;19.20;59.40;;;;;;5054310;28;19979;-65
2023/09/23 10:17:05;;;;;;;;;;;19.20;58.70;;;;;;5054304;28;19924;-65
2023/09/23 10:19:33;;;;;;;;;;;19.20;58.30;;;;;;5052495;28;20385;-65
2023/09/23 10:22:13;;;;;;;;;;;19.10;59.20;;;;;;5054013;28;19970;-65
2023/09/23 10:24:40;;;;;;;;;;;19.10;57.10;;;;;;5054263;28;20388;-65
2023/09/23 10:27:10;;;;;;;;;;;19.10;57.80;;;;;;5054217;28;20368;-65
2023/09/23 10:29:45;;;;;;;;;;;19.10;58.90;;;;;;5053680;28;19929;-64
2023/09/23 10:32:14;;;;;;;;;;;19.10;59.70;;;;;;5053769;28;19935;-65
2023/09/23 10:34:53;;;;;;;;;;;19.00;58.50;;;;;;5053688;28;19978;-65
2023/09/23 10:37:29;;;;;;;;;;;19.00;57.70;;;;;;5052222;28;19935;-65
2023/09/23 10:39:59;;;;;;;;;;;19.00;59.30;;;;;;5053888;28;20440;-64
2023/09/23 10:42:26;;;;;;;;;;;19.00;58.60;;;;;;5053594;28;20389;-65
2023/09/23 10:44:57;;;;;;;;;;;19.00;58.30;;;;;;5053897;28;19925;-65
2023/09/23 10:47:25;;;;;;;;;;;19.00;60.60;;;;;;5053735;28;20046;-65
2023/09/23 10:49:52;;;;;;;;;;;19.00;58.40;;;;;;5068710;28;20415;-65
2023/09/23 10:52:20;;;;;;;;;;;19.10;57.50;;;;;;5052575;28;20262;-65
2023/09/23 10:54:50;;;;;;;;;;;19.10;57.10;;;;;;5053381;28;19929;-65
2023/09/23 10:57:16;;;;;;;;;;;19.10;59.00;;;;;;5052352;28;19929;-65
2023/09/23 10:59:44;;;;;;;;;;;19.10;57.40;;;;;;5053438;28;19970;-65
2023/09/23 11:02:11;;;;;;;;;;;19.10;57.30;;;;;;5053747;28;19925;-65
2023/09/23 11:04:38;;;;;;;;;;;19.10;58.60;;;;;;5053648;28;19963;-65
2023/09/23 11:07:06;;;;;;;;;;;19.10;57.70;;;;;;5053784;28;20347;-65
2023/09/23 11:09:33;;;;;;;;;;;19.10;57.60;;;;;;5053318;28;19925;-65
2023/09/23 11:12:09;;;;;;;;;;;19.10;57.50;;;;;;5051696;28;20281;-64
2023/09/23 11:14:36;;;;;;;;;;;19.10;58.30;;;;;;5052366;28;20297;-65
2023/09/23 11:17:03;;;;;;;;;;;19.10;57.70;;;;;;5053193;28;19932;-64
2023/09/23 11:19:30;;;;;;;;;;;19.10;58.00;;;;;;5053334;28;20031;-64
2023/09/23 11:21:58;;;;;;;;;;;19.10;59.50;;;;;;5053047;28;19929;-64
2023/09/23 11:24:36;;;;;;;;;;;19.00;57.80;;;;;;5052091;28;19925;-65
2023/09/23 11:27:06;;;;;;;;;;;19.10;57.70;;;;;;5052893;28;19967;-64
2023/09/23 11:29:33;;;;;;;;;;;19.00;60.00;;;;;;5053309;28;19925;-65
2023/09/23 11:32:00;;;;;;;;;;;19.00;58.50;;;;;;5051539;28;19925;-65
2023/09/23 11:34:30;;;;;;;;;;;18.90;59.30;;;;;;5053274;28;19925;-65
2023/09/23 11:36:57;;;;;;;;;;;18.90;60.70;;;;;;5051862;28;19976;-65
2023/09/23 11:39:25;;;;;;;;;;;19.00;59.00;;;;;;5053316;28;20348;-65
2023/09/23 11:41:57;;;;;;;;;;;19.00;56.50;;;;;;5053125;28;20023;-65
2023/09/23 11:44:24;;;;;;;;;;;19.10;58.80;;;;;;5052723;28;19971;-65
2023/09/23 11:46:51;;;;;;;;;;;19.10;59.40;;;;;;5051852;28;19925;-64
2023/09/23 11:49:18;;;;;;;;;;;19.10;58.80;;;;;;5051952;28;19925;-65
2023/09/23 11:51:45;;;;;;;;;;;19.20;58.70;;;;;;5052884;28;19971;-64
2023/09/23 11:54:12;;;;;;;;;;;19.20;59.80;;;;;;5052545;28;19980;-65
2023/09/23 11:56:41;;;;;;;;;;;19.20;59.50;;;;;;5053299;28;19931;-65
2023/09/23 11:59:08;;;;;;;;;;;19.20;57.50;;;;;;5052863;28;20316;-65
2023/09/23 12:01:36;;;;;;;;;;;19.20;57.70;;;;;;5053233;28;19925;-65
2023/09/23 12:04:03;;;;;;;;;;;19.20;58.70;;;;;;5052758;28;19928;-65
2023/09/23 12:06:34;;;;;;;;;;;19.10;59.10;;;;;;5053026;28;19925;-65
2023/09/23 12:09:03;;;;;;;;;;;19.20;56.90;;;;;;5052893;28;19968;-65
2023/09/23 12:11:30;;;;;;;;;;;19.20;57.60;;;;;;5053127;28;20262;-65
2023/09/23 12:13:57;;;;;;;;;;;19.20;56.90;;;;;;5052419;28;19929;-65
2023/09/23 12:16:24;;;;;;;;;;;19.20;57.90;;;;;;5052422;28;19926;-65
2023/09/23 12:18:51;;;;;;;;;;;19.20;57.00;;;;;;5052523;28;19983;-65
2023/09/23 12:21:18;;;;;;;;;;;19.10;56.60;;;;;;5052621;28;19928;-65
2023/09/23 12:23:45;;;;;;;;;;;19.10;56.80;;;;;;5052667;28;19929;-65
2023/09/23 12:26:15;;;;;;;;;;;19.20;58.00;;;;;;5052688;28;19928;-64
2023/09/23 12:28:42;;;;;;;;;;;19.10;58.40;;;;;;5051804;28;19931;-65
2023/09/23 12:31:10;;;;;;;;;;;19.20;58.00;;;;;;5052703;28;19925;-64
2023/09/23 12:33:37;;;;;;;;;;;19.20;57.10;;;;;;5050785;28;20073;-65
2023/09/23 12:36:04;;;;;;;;;;;19.20;57.30;;;;;;5052364;28;20381;-64
2023/09/23 12:38:31;;;;;;;;;;;19.30;57.80;;;;;;5054539;28;19972;-65
2023/09/23 12:40:58;;;;;;;;;;;19.30;57.80;;;;;;5056380;28;20335;-65
2023/09/23 12:43:25;;;;;;;;;;;19.30;58.00;;;;;;5055817;28;19925;-65
2023/09/23 12:45:52;;;;;;;;;;;19.20;59.00;;;;;;5056463;28;20328;-64
2023/09/23 12:48:19;;;;;;;;;;;19.20;58.90;;;;;;5055791;28;19925;-65
2023/09/23 12:50:46;;;;;;;;;;;19.20;59.30;;;;;;5055707;28;19970;-65
2023/09/23 12:53:13;;;;;;;;;;;19.20;59.60;;;;;;5055899;28;20361;-64
2023/09/23 12:55:40;;;;;;;;;;;19.20;59.00;;;;;;5055909;28;19925;-65
2023/09/23 12:58:07;;;;;;;;;;;19.10;58.50;;;;;;5055924;28;19924;-64
2023/09/23 13:00:34;;;;;;;;;;;19.10;59.20;;;;;;5056174;28;20335;-64
2023/09/23 13:03:01;;;;;;;;;;;19.10;59.60;;;;;;5055568;28;19931;-64
2023/09/23 13:05:28;;;;;;;;;;;19.00;58.50;;;;;;5055690;28;20015;-64
2023/09/23 13:07:56;;;;;;;;;;;19.00;60.00;;;;;;5038210;28;20019;-64
2023/09/23 13:10:23;;;;;;;;;;;19.00;59.60;;;;;;5054249;28;19971;-64
2023/09/23 13:12:51;;;;;;;;;;;18.90;59.30;;;;;;5054159;28;20396;-64
2023/09/23 13:15:18;;;;;;;;;;;19.00;58.70;;;;;;5055336;28;20229;-64
2023/09/23 13:17:46;;;;;;;;;;;18.90;59.60;;;;;;5055273;28;20377;-64
2023/09/23 13:20:13;;;;;;;;;;;19.00;59.50;;;;;;5055753;28;19929;-64
2023/09/23 13:22:40;;;;;;;;;;;19.00;58.70;;;;;;5054992;28;19932;-64
2023/09/23 13:25:07;;;;;;;;;;;19.00;58.40;;;;;;5055417;28;19931;-64
2023/09/23 13:27:34;;;;;;;;;;;19.00;60.10;;;;;;5055615;28;19942;-65
2023/09/23 13:30:02;;;;;;;;;;;19.00;60.00;;;;;;5055195;28;19929;-64
2023/09/23 13:32:29;;;;;;;;;;;19.00;60.30;;;;;;5055052;28;19994;-65
2023/09/23 13:34:56;;;;;;;;;;;19.00;59.90;;;;;;5054975;28;19925;-65
2023/09/23 13:37:23;;;;;;;;;;;19.10;59.40;;;;;;5054907;28;19925;-64
2023/09/23 13:39:50;;;;;;;;;;;19.10;57.70;;;;;;5055015;28;19931;-64
2023/09/23 13:42:17;;;;;;;;;;;19.00;59.60;;;;;;5054986;28;19933;-64
2023/09/23 13:44:49;;;;;;;;;;;19.00;57.70;;;;;;5054979;28;19924;-65
2023/09/23 13:47:17;;;;;;;;;;;19.00;58.90;;;;;;5055043;28;19924;-64
2023/09/23 13:49:44;;;;;;;;;;;18.90;59.10;;;;;;5054043;28;19936;-64
2023/09/23 13:52:11;;;;;;;;;;;18.90;59.60;;;;;;5054744;28;19924;-64
2023/09/23 13:54:38;;;;;;;;;;;18.90;59.50;;;;;;5054347;28;19929;-65
2023/09/23 13:57:05;;;;;;;;;;;18.90;61.20;;;;;;5054598;28;19928;-64
2023/09/23 13:59:32;;;;;;;;;;;18.80;60.80;;;;;;5053911;28;20442;-64
2023/09/23 14:01:59;;;;;;;;;;;18.80;60.70;;;;;;5054934;28;19925;-64
2023/09/23 14:04:26;;;;;;;;;;;18.80;61.70;;;;;;5054832;28;20266;-64
2023/09/23 14:06:53;;;;;;;;;;;18.90;65.80;;;;;;5054671;28;19939;-64
2023/09/23 14:09:20;;;;;;;;;;;19.20;74.30;;;;;;5054680;28;19933;-64
2023/09/23 14:11:47;;;;;;;;;;;19.50;78.80;;;;;;5054211;28;19975;-65
2023/09/23 14:14:14;;;;;;;;;;;19.80;80.40;;;;;;5054277;28;19929;-64
2023/09/23 14:16:41;;;;;;;;;;;20.20;80.40;;;;;;5054287;28;19952;-65
2023/09/23 14:19:08;;;;;;;;;;;20.50;80.40;;;;;;5054170;28;19928;-64
2023/09/23 14:21:35;;;;;;;;;;;20.70;79.70;;;;;;5054329;28;20015;-64